VECCVYYY

Guest
Details From VECC - NETAJI SUBHASH CHANDRA BOSE INTL
To VYYY - YANGON INTL
Flight Number -
Tags decoded
Created
Modified
Stats Distance 558 nm / 1,034 km
Max Altitude 0 ft / 0 m
Waypoints 3
Social Downloads 0
Likes 0
Share VATSIM

Download

Looking for another format? Having issues loading an existing format? Contact us
Advertisement - Login to hide

Notes

Requested: VECC VYSW VYYY

Route

VECC VYSW VYYY

ID Type Via Altitude Latitude Longitude Leg Dist Tot Dist Heading (true) Name
O VECC APT - 0 ft / 0 m 22.65562˚ 88.44686˚ - 0 nm - NETAJI SUBHASH CHANDRA BOSE INTL
VYSW APT - 0 ft / 0 m 20.13271˚ 92.87263˚ 290 nm 290 nm 121° / 122° SITTWE
O VYYY APT - 0 ft / 0 m 16.91084˚ 96.13568˚ 268 nm 558 nm 136° / 137° YANGON INTL

Altitude Profile

Advertisement - Login to hide

Weather


0- 5 10 15 20 25 30 35+ Temperature / ° C

Clouds and Precipitation
Forecast for 2017-12-12 00:00 UTC. Updated 2 hours ago

Ground ~20,000 ft ~40,000 ft Winds

VECC

Details ICAO VECC (CCU)
Name NETAJI SUBHASH CHANDRA BOSE INTL
Region India
Timezone Asia/Kolkata (UTC+5.5)
Stats Elevation 16 ft / 5 m (AMSL)
Location 22.655618° 88.446856°
Runways 2
Magnetic Variation 0.226° W

METAR

VECC 112100Z 00000KT 1400 R19R/1600 BR NSC 21/20 Q1013 NOSIG

Decode

TAF

TAF VECC 111700Z 1118/1224 00000KT 2100 BR NSC BECMG 1121/1123 1000 MIFG BECMG 1202/1204 33005KT 2000 BR BECMG 1205/1207 3500 HZ BECMG 1216/1218 00000KT 2000 BR BECMG 1222/1224 1000 MIFG

Decode

Departure Runways

ID Width Length Bearing (true) Bearing (mag) Surface Threshold Offset Overrun Length
01L 151 ft / 46 m 9,329 ft / 2,843 m 6.17° 6.40° Asphalt 0 ft / 0 m 0 ft / 0 m
01R 151 ft / 46 m 11,790 ft / 3,594 m 6.20° 6.43° Asphalt 0 ft / 0 m 213 ft / 65 m
19L 151 ft / 46 m 11,790 ft / 3,594 m 186.20° 186.43° Asphalt 1,211 ft / 369 m 682 ft / 208 m
19R 151 ft / 46 m 9,329 ft / 2,843 m 186.17° 186.40° Asphalt 764 ft / 233 m 748 ft / 228 m

VYYY

Details ICAO VYYY (RGN)
Name YANGON INTL
Region Myanmar
Timezone Asia/Rangoon (UTC+6.5)
Stats Elevation 109 ft / 33 m (AMSL)
Location 16.910841° 96.135680°
Runways 1
Magnetic Variation 0.635° W

METAR

VYYY 112100Z 26003KT 6000 NSC 25/23 Q1012

Decode

TAF

TAF TAF VYYY 111700Z 1118/1218 31002KT 8000 SCT018 FEW025TCU TEMPO 1118/1123 26005KT 6000 BECMG 1200/1202 02002KT 3000 BR

Decode

Destination Runways

ID Width Length Bearing (true) Bearing (mag) Surface Threshold Offset Overrun Length
03 200 ft / 61 m 11,251 ft / 3,429 m 33.10° 33.73° Asphalt 0 ft / 0 m 194 ft / 59 m
21 200 ft / 61 m 11,251 ft / 3,429 m 213.10° 213.73° Asphalt 276 ft / 84 m 0 ft / 0 m

Approach Navaids

Runway Type Ident Frequency Range Bearing (true) Bearing (mag) Slope Elevation
21 Localiser IYGN 109.90 MHz 18 nm / 33 km 213.02° 213.66° - 65 ft / 20 m (AMSL)
21 Glidescope IYGN 109.90 MHz 10 nm / 19 km 213.10° 213.73° 3.00° 65 ft / 20 m (AMSL)
21 DME IYGN 109.90 MHz 18 nm / 33 km - - - 50 ft / 15 m (AMSL)

Popular Alternatives